Akchar — 5TTDA — position and weather

sailwx.info

Track history (hours):
 
Tides and Currents Weather Stations Pressure Air Temp Water Temp Dewpoint Dewpoint Depression Visibility Wind Speed Wind Dir Waves Ship Positions

Akchar

Last reported at 2018-Feb-16 22:52 UTC. Time now 2018-Feb-19 00:04 UTC.
Position N 27°47' W 015°21'.

Length 27 m; draft 4.2 m.

Type: Fishing. MMSI: 654045700.

Date/timePositionNaut miles runAvg speedWind from/ knotsBaromVisibWave heightAir tempDewpointWater temp
2018-Feb-16 22:52N 27°47' W 015°21'3 7.2
2018-Feb-16 22:30N 27°50' W 015°20'3 6.7
2018-Feb-16 22:00N 27°53' W 015°19'3 6.7
2018-Feb-16 21:29N 27°57' W 015°19'3 6.8
2018-Feb-16 21:00N 27°60' W 015°20'3 6.4
2018-Feb-16 20:30N 28°03' W 015°21'3 6.4
2018-Feb-16 20:00N 28°06' W 015°23'3 6.2
2018-Feb-16 19:29N 28°08' W 015°25'0 0.8
2018-Feb-16 18:58N 28°09' W 015°25'0 0.0
2018-Feb-16 18:30N 28°09' W 015°25'0 0.0
2018-Feb-16 18:00N 28°09' W 015°25'0 0.0
2018-Feb-16 17:30N 28°09' W 015°25'0 0.0
2018-Feb-16 17:00N 28°09' W 015°25'0 0.0
2018-Feb-16 16:30N 28°09' W 015°25'0 0.0
2018-Feb-16 16:00N 28°09' W 015°25'0 0.0
2018-Feb-16 15:30N 28°09' W 015°25'0 0.0
2018-Feb-16 15:00N 28°09' W 015°25'0 0.0
2018-Feb-16 14:28N 28°09' W 015°25'0 0.0
2018-Feb-16 14:00N 28°09' W 015°25'0 0.0
2018-Feb-16 13:30N 28°09' W 015°25'0 0.0
2018-Feb-16 13:00N 28°09' W 015°25'0 0.0
2018-Feb-16 12:30N 28°09' W 015°25'0 0.0
2018-Feb-16 12:00N 28°09' W 015°25'0 0.0
2018-Feb-16 11:30N 28°09' W 015°25'0 0.0
2018-Feb-16 11:00N 28°09' W 015°25'0 0.0
2018-Feb-16 10:30N 28°09' W 015°25'0 0.0
2018-Feb-16 10:00N 28°09' W 015°25'0 0.0
2018-Feb-16 09:28N 28°09' W 015°25'0 0.0
2018-Feb-16 09:00N 28°09' W 015°25'0 0.0
2018-Feb-16 08:30N 28°09' W 015°25'0 0.0
2018-Feb-16 08:00N 28°09' W 015°25'0 0.0
2018-Feb-16 07:30N 28°09' W 015°25'0 0.0
2018-Feb-16 07:00N 28°09' W 015°25'0 0.0
2018-Feb-16 06:30N 28°09' W 015°25'0 0.0
2018-Feb-16 06:00N 28°09' W 015°25'0 0.0
2018-Feb-16 05:30N 28°09' W 015°25'0 0.0
2018-Feb-16 05:00N 28°09' W 015°25'0 0.0
2018-Feb-16 04:30N 28°09' W 015°25'0 0.0
2018-Feb-16 04:00N 28°09' W 015°25'0 0.0
2018-Feb-16 03:30N 28°09' W 015°25'0 0.0
2018-Feb-16 03:00N 28°09' W 015°25'0 0.0
2018-Feb-16 02:30N 28°09' W 015°25'0 0.0
2018-Feb-16 02:00N 28°09' W 015°25'0 0.0
2018-Feb-16 01:30N 28°09' W 015°25'0 0.0
2018-Feb-16 01:00N 28°09' W 015°25'0 0.0
2018-Feb-16 00:30N 28°09' W 015°25'0 0.0
2018-Feb-16 00:00N 28°09' W 015°25'0 0.0
2018-Feb-15 23:30N 28°09' W 015°25'0 0.0
2018-Feb-15 23:00N 28°09' W 015°25'0 0.0
2018-Feb-15 22:30N 28°09' W 015°25'0 0.0
2018-Feb-15 22:00N 28°09' W 015°25'0 0.0
2018-Feb-15 21:28N 28°09' W 015°25'0 0.0
2018-Feb-15 21:00N 28°09' W 015°25'0 0.0
2018-Feb-15 20:30N 28°09' W 015°25'0 0.0
2018-Feb-15 20:00N 28°09' W 015°25'0 0.0
2018-Feb-15 19:30N 28°09' W 015°25'0 0.0
2018-Feb-15 19:00N 28°09' W 015°25'0 0.0
2018-Feb-15 18:30N 28°09' W 015°25'0 0.0
2018-Feb-15 18:00N 28°09' W 015°25'0 0.0
2018-Feb-15 17:30N 28°09' W 015°25'0 0.0
2018-Feb-15 17:00N 28°09' W 015°25'1 2.2
2018-Feb-15 16:31N 28°08' W 015°25'1 2.9
2018-Feb-15 16:00N 28°09' W 015°25'0 0.2
2018-Feb-15 15:30N 28°09' W 015°25'0 0.0
2018-Feb-15 15:00N 28°09' W 015°25'0 0.2
2018-Feb-15 14:30N 28°09' W 015°25'0 0.0
2018-Feb-15 14:00N 28°09' W 015°25'0 0.0
2018-Feb-15 13:30N 28°09' W 015°25'0 0.0
2018-Feb-15 13:00N 28°09' W 015°25'0 0.0
2018-Feb-15 12:30N 28°09' W 015°25'0 0.0
2018-Feb-15 12:00N 28°09' W 015°25'0 0.0
2018-Feb-15 11:30N 28°09' W 015°25'0 0.0
2018-Feb-15 11:00N 28°09' W 015°25'0 0.0
2018-Feb-15 10:30N 28°09' W 015°25'0 0.0
2018-Feb-15 10:00N 28°09' W 015°25'0 0.0
2018-Feb-15 09:30N 28°09' W 015°25'0 0.0
2018-Feb-15 09:00N 28°09' W 015°25'0 0.0
2018-Feb-15 08:30N 28°09' W 015°25'0 0.0
2018-Feb-15 08:00N 28°09' W 015°25'0 0.0
2018-Feb-15 07:30N 28°09' W 015°25'0 0.0
2018-Feb-15 07:00N 28°09' W 015°25'0 0.0
2018-Feb-15 06:30N 28°09' W 015°25'0 0.0
2018-Feb-15 06:00N 28°09' W 015°25'0 0.0
2018-Feb-15 05:30N 28°09' W 015°25'0 0.0
2018-Feb-15 05:00N 28°09' W 015°25'0 0.0
2018-Feb-15 04:30N 28°09' W 015°25'0 0.0
2018-Feb-15 04:00N 28°09' W 015°25'0 0.0
2018-Feb-15 03:30N 28°09' W 015°25'0 0.0
2018-Feb-15 03:00N 28°09' W 015°25'0 0.0
2018-Feb-15 02:30N 28°09' W 015°25'0 0.0
2018-Feb-15 02:00N 28°09' W 015°25'0 0.0
2018-Feb-15 01:30N 28°09' W 015°25'0 0.0
2018-Feb-15 01:00N 28°09' W 015°25'0 0.0
2018-Feb-15 00:30N 28°09' W 015°25'0 0.0
2018-Feb-15 00:00N 28°09' W 015°25'0 0.0
2018-Feb-14 23:30N 28°09' W 015°25'0 0.0
2018-Feb-14 23:00N 28°09' W 015°25'0 0.0
2018-Feb-14 22:30N 28°09' W 015°25'0 0.0
2018-Feb-14 22:00N 28°09' W 015°25'0 0.0
2018-Feb-14 21:30N 28°09' W 015°25'0 0.0
2018-Feb-14 21:00N 28°09' W 015°25'0 0.0
2018-Feb-14 20:30N 28°09' W 015°25'0 0.0
2018-Feb-14 20:00N 28°09' W 015°25'0 0.0
2018-Feb-14 19:30N 28°09' W 015°25'0 0.0
2018-Feb-14 19:00N 28°09' W 015°25'0 0.0
2018-Feb-14 18:29N 28°09' W 015°25'0 0.0
2018-Feb-14 18:00N 28°09' W 015°25'0 0.0
2018-Feb-14 17:30N 28°09' W 015°25'0 0.0
2018-Feb-14 17:00N 28°09' W 015°25'0 0.0
2018-Feb-14 16:30N 28°09' W 015°25'0 0.0
2018-Feb-14 16:00N 28°09' W 015°25'0 0.0
2018-Feb-14 15:29N 28°09' W 015°25'0 0.0
2018-Feb-14 15:00N 28°09' W 015°25'0 0.0
2018-Feb-14 14:30N 28°09' W 015°25'0 0.0
2018-Feb-14 14:00N 28°09' W 015°25'0 0.0
2018-Feb-14 13:30N 28°09' W 015°25'0 0.0
2018-Feb-14 13:00N 28°09' W 015°25'0 0.0
2018-Feb-14 12:30N 28°09' W 015°25'0 0.0
2018-Feb-14 12:00N 28°09' W 015°25'0 0.0
2018-Feb-14 11:30N 28°09' W 015°25'0 0.0
2018-Feb-14 10:59N 28°09' W 015°25'0 0.0
2018-Feb-14 10:30N 28°09' W 015°25'0 0.0
2018-Feb-14 10:00N 28°09' W 015°25'0 0.0
2018-Feb-14 09:30N 28°09' W 015°25'0 0.0
2018-Feb-14 09:00N 28°09' W 015°25'0 0.0
2018-Feb-14 08:30N 28°09' W 015°25'0 0.0
2018-Feb-14 08:00N 28°09' W 015°25'0 0.0
2018-Feb-14 07:30N 28°09' W 015°25'0 0.0
2018-Feb-14 07:00N 28°09' W 015°25'0 0.0
2018-Feb-14 06:30N 28°09' W 015°25'0 0.0
2018-Feb-14 06:00N 28°09' W 015°25'0 0.0
2018-Feb-14 05:30N 28°09' W 015°25'0 0.0
2018-Feb-14 05:00N 28°09' W 015°25'0 0.0
2018-Feb-14 04:30N 28°09' W 015°25'0 0.0
2018-Feb-14 04:00N 28°09' W 015°25'0 0.0
2018-Feb-14 03:30N 28°09' W 015°25'0 0.0
2018-Feb-14 03:00N 28°09' W 015°25'0 0.0
2018-Feb-14 02:30N 28°09' W 015°25'0 0.0
2018-Feb-14 02:00N 28°09' W 015°25'0 0.0
2018-Feb-14 01:29N 28°09' W 015°25'0 0.0
2018-Feb-14 01:00N 28°09' W 015°25'0 0.0
2018-Feb-14 00:30N 28°09' W 015°25'0 0.0
2018-Feb-14 00:00N 28°09' W 015°25'0 0.0
2018-Feb-13 23:30N 28°09' W 015°25'0 0.0
2018-Feb-13 23:00N 28°09' W 015°25'0 0.0
2018-Feb-13 22:30N 28°09' W 015°25'0 0.0
2018-Feb-13 22:00N 28°09' W 015°25'0 0.0
2018-Feb-13 21:30N 28°09' W 015°25'0 0.0
2018-Feb-13 21:00N 28°09' W 015°25'0 0.0
2018-Feb-13 20:30N 28°09' W 015°25'0 0.0
2018-Feb-13 20:00N 28°09' W 015°25'0 0.0
2018-Feb-13 19:30N 28°09' W 015°25'0 0.0
2018-Feb-13 19:00N 28°09' W 015°25'0 0.0
2018-Feb-13 18:30N 28°09' W 015°25'0 0.0
2018-Feb-13 18:00N 28°09' W 015°25'0 0.0
2018-Feb-13 17:30N 28°09' W 015°25'0 0.0
2018-Feb-13 17:00N 28°09' W 015°25'0 0.0
2018-Feb-13 16:30N 28°09' W 015°25'0 0.0
2018-Feb-13 16:00N 28°09' W 015°25'0 0.0
2018-Feb-13 15:30N 28°09' W 015°25'0 0.0
2018-Feb-13 15:00N 28°09' W 015°25'0 0.0
2018-Feb-13 14:30N 28°09' W 015°25'0 0.0
2018-Feb-13 14:00N 28°09' W 015°25'0 0.0
2018-Feb-13 13:30N 28°09' W 015°25'0 0.0
2018-Feb-13 12:59N 28°09' W 015°25'0 0.0
2018-Feb-13 12:30N 28°09' W 015°25'0 0.0
2018-Feb-13 12:00N 28°09' W 015°25'0 0.0
2018-Feb-13 11:30N 28°09' W 015°25'0 0.0
2018-Feb-13 11:00N 28°09' W 015°25'0 0.0
2018-Feb-13 10:30N 28°09' W 015°25'0 0.0
2018-Feb-13 10:00N 28°09' W 015°25'0 0.0
2018-Feb-13 09:30N 28°09' W 015°25'0 0.0
2018-Feb-13 09:00N 28°09' W 015°25'0 0.0
2018-Feb-13 08:30N 28°09' W 015°25'0 0.0
2018-Feb-13 08:00N 28°09' W 015°25'0 0.0
2018-Feb-13 07:30N 28°09' W 015°25'0 0.0
2018-Feb-13 07:00N 28°09' W 015°25'0 0.0
2018-Feb-13 06:30N 28°09' W 015°25'0 0.0
2018-Feb-13 06:00N 28°09' W 015°25'0 0.0
2018-Feb-13 05:30N 28°09' W 015°25'0 0.0
2018-Feb-13 05:00N 28°09' W 015°25'0 0.0
2018-Feb-13 04:30N 28°09' W 015°25'0 0.0
2018-Feb-13 04:00N 28°09' W 015°25'0 0.0
2018-Feb-13 03:30N 28°09' W 015°25'0 0.0
2018-Feb-13 03:00N 28°09' W 015°25'0 0.0
2018-Feb-13 02:30N 28°09' W 015°25'0 0.0
2018-Feb-13 02:00N 28°09' W 015°25'0 0.0
2018-Feb-13 01:30N 28°09' W 015°25'0 0.0
2018-Feb-13 01:00N 28°09' W 015°25'0 0.0
2018-Feb-13 00:30N 28°09' W 015°25'0 0.0
2018-Feb-12 23:59N 28°09' W 015°25'0 0.0
2018-Feb-12 23:30N 28°09' W 015°25'0 0.0
2018-Feb-12 23:00N 28°09' W 015°25'0 0.0
2018-Feb-12 22:30N 28°09' W 015°25'0 0.0
2018-Feb-12 22:00N 28°09' W 015°25'0 0.0
2018-Feb-12 21:30N 28°09' W 015°25'0 0.0
2018-Feb-12 21:00N 28°09' W 015°25'0 0.0
2018-Feb-12 20:30N 28°09' W 015°25'0 0.0
2018-Feb-12 20:00N 28°09' W 015°25'0 0.0
2018-Feb-12 19:30N 28°09' W 015°25'0 0.0
2018-Feb-12 19:00N 28°09' W 015°25'0 0.0
2018-Feb-12 18:30N 28°09' W 015°25'0 0.0
2018-Feb-12 18:00N 28°09' W 015°25'0 0.0
2018-Feb-12 17:30N 28°09' W 015°25'0 0.0
2018-Feb-12 17:00N 28°09' W 015°25'0 0.0
2018-Feb-12 16:30N 28°09' W 015°25'0 0.0
2018-Feb-12 16:00N 28°09' W 015°25'0 0.0
2018-Feb-12 15:30N 28°09' W 015°25'0 0.0
2018-Feb-12 15:00N 28°09' W 015°25'0 0.0
2018-Feb-12 14:30N 28°09' W 015°25'0 0.0
2018-Feb-12 14:00N 28°09' W 015°25'0 0.0
2018-Feb-12 13:30N 28°09' W 015°25'0 0.0
2018-Feb-12 13:00N 28°09' W 015°25'0 0.0
2018-Feb-12 12:30N 28°09' W 015°25'0 0.1
2018-Feb-12 12:00N 28°09' W 015°25'0 0.1
2018-Feb-12 11:30N 28°09' W 015°25'0 0.0
2018-Feb-12 11:00N 28°09' W 015°25'0 0.0
2018-Feb-12 10:30N 28°09' W 015°25'0 0.0
2018-Feb-12 10:00N 28°09' W 015°25'0 0.0
2018-Feb-12 09:30N 28°09' W 015°25'0 0.0
2018-Feb-12 09:00N 28°09' W 015°25'0 0.5
2018-Feb-12 08:30N 28°09' W 015°25'0 0.4
2018-Feb-12 08:00N 28°09' W 015°25'1 1.4
2018-Feb-12 07:30N 28°09' W 015°25'0 0.0
2018-Feb-12 07:00N 28°09' W 015°25'0 0.0
2018-Feb-12 06:28N 28°09' W 015°25'0 0.0
2018-Feb-12 05:59N 28°09' W 015°25'0 0.0
2018-Feb-12 05:30N 28°09' W 015°25'0 0.0
2018-Feb-12 05:00N 28°09' W 015°25'0 0.0
2018-Feb-12 04:30N 28°09' W 015°25'0 0.0
2018-Feb-12 04:00N 28°09' W 015°25'0 0.0
2018-Feb-12 03:30N 28°09' W 015°25'0 0.0
2018-Feb-12 03:00N 28°09' W 015°25'0 0.0
2018-Feb-12 02:30N 28°09' W 015°25'0 0.0
2018-Feb-12 02:00N 28°09' W 015°25'0 0.0
2018-Feb-12 01:30N 28°09' W 015°25'0 0.0
2018-Feb-12 01:00N 28°09' W 015°25'0 0.0
2018-Feb-12 00:30N 28°09' W 015°25'0 0.0
2018-Feb-12 00:00N 28°09' W 015°25'0 0.0
2018-Feb-11 23:30N 28°09' W 015°25'0 0.0
2018-Feb-11 23:00N 28°09' W 015°25'0 0.0
2018-Feb-11 22:30N 28°09' W 015°25'0 0.0
2018-Feb-11 22:00N 28°09' W 015°25'0 0.0
2018-Feb-11 21:30N 28°09' W 015°25'0 0.0
2018-Feb-11 21:00N 28°09' W 015°25'0 0.0
2018-Feb-11 20:30N 28°09' W 015°25'0 0.0
2018-Feb-11 20:00N 28°09' W 015°25'0 0.0
2018-Feb-11 19:30N 28°09' W 015°25'0 0.0
2018-Feb-11 19:00N 28°09' W 015°25'0 0.0
2018-Feb-11 18:30N 28°09' W 015°25'0 0.0
2018-Feb-11 18:00N 28°09' W 015°25'0 0.0
2018-Feb-11 17:29N 28°09' W 015°25'0 0.0
2018-Feb-11 17:01N 28°09' W 015°25'0 0.0
2018-Feb-11 16:30N 28°09' W 015°25'0 0.0
2018-Feb-11 16:00N 28°09' W 015°25'0 0.0
2018-Feb-11 15:30N 28°09' W 015°25'0 0.0
2018-Feb-11 15:00N 28°09' W 015°25'0 0.0
2018-Feb-11 14:30N 28°09' W 015°25'0 0.0
2018-Feb-11 14:00N 28°09' W 015°25'0 0.0
2018-Feb-11 13:30N 28°09' W 015°25'0 0.0
2018-Feb-11 13:00N 28°09' W 015°25'0 0.0
2018-Feb-11 12:30N 28°09' W 015°25'0 0.0
2018-Feb-11 12:00N 28°09' W 015°25'0 0.0
2018-Feb-11 11:30N 28°09' W 015°25'0 0.0
2018-Feb-11 11:00N 28°09' W 015°25'0 0.0
2018-Feb-11 10:30N 28°09' W 015°25'0 0.0
2018-Feb-11 10:00N 28°09' W 015°25'0 0.0
2018-Feb-11 09:30N 28°09' W 015°25'0 0.0
2018-Feb-11 09:00N 28°09' W 015°25'0 0.0
2018-Feb-11 08:30N 28°09' W 015°25'0 0.0
2018-Feb-11 08:00N 28°09' W 015°25'0 0.0
2018-Feb-11 07:30N 28°09' W 015°25'0 0.0
2018-Feb-11 07:00N 28°09' W 015°25'0 0.0
2018-Feb-11 06:30N 28°09' W 015°25'0 0.0
2018-Feb-11 06:00N 28°09' W 015°25'0 0.0
2018-Feb-11 05:30N 28°09' W 015°25'0 0.0
2018-Feb-11 05:00N 28°09' W 015°25'0 0.0
2018-Feb-11 04:30N 28°09' W 015°25'0 0.0
2018-Feb-11 04:00N 28°09' W 015°25'0 0.0
2018-Feb-11 03:30N 28°09' W 015°25'0 0.0
2018-Feb-11 03:00N 28°09' W 015°25'0 0.0
2018-Feb-11 02:30N 28°09' W 015°25'0 0.0
2018-Feb-11 02:00N 28°09' W 015°25'0 0.0
2018-Feb-11 01:30N 28°09' W 015°25'0 0.0
2018-Feb-11 01:00N 28°09' W 015°25'0 0.0
2018-Feb-11 00:30N 28°09' W 015°25'0 0.0
2018-Feb-10 23:57N 28°09' W 015°25'0 0.0
2018-Feb-10 23:30N 28°09' W 015°25'0 0.0
2018-Feb-10 22:59N 28°09' W 015°25'0 0.0
2018-Feb-10 22:30N 28°09' W 015°25'0 0.0
2018-Feb-10 22:00N 28°09' W 015°25'0 0.0
2018-Feb-10 21:30N 28°09' W 015°25'0 0.0
2018-Feb-10 21:00N 28°09' W 015°25'0 0.0
2018-Feb-10 20:30N 28°09' W 015°25'0 0.0
2018-Feb-10 20:00N 28°09' W 015°25'0 0.0
2018-Feb-10 19:30N 28°09' W 015°25'0 0.0
2018-Feb-10 19:00N 28°09' W 015°25'0 0.0
2018-Feb-10 18:30N 28°09' W 015°25'0 0.0
2018-Feb-10 17:57N 28°09' W 015°25'0 0.0
2018-Feb-10 17:30N 28°09' W 015°25'0 0.0
2018-Feb-10 17:00N 28°09' W 015°25'0 0.0
2018-Feb-10 16:30N 28°09' W 015°25'0 0.0
2018-Feb-10 16:00N 28°09' W 015°25'0 0.0
2018-Feb-10 15:30N 28°09' W 015°25'0 0.0
2018-Feb-10 15:00N 28°09' W 015°25'0 0.0
2018-Feb-10 14:30N 28°09' W 015°25'0 0.0
2018-Feb-10 14:00N 28°09' W 015°25'0 0.0
2018-Feb-10 13:30N 28°09' W 015°25'0 0.0
2018-Feb-10 13:00N 28°09' W 015°25'0 0.0
2018-Feb-10 12:30N 28°09' W 015°25'0 0.0
2018-Feb-10 12:00N 28°09' W 015°25'0 0.0
2018-Feb-10 11:30N 28°09' W 015°25'0 0.0
2018-Feb-10 11:00N 28°09' W 015°25'0 0.0
2018-Feb-10 10:30N 28°09' W 015°25'0 0.0
2018-Feb-10 10:00N 28°09' W 015°25'0 0.0
2018-Feb-10 09:30N 28°09' W 015°25'0 0.0
2018-Feb-10 08:59N 28°09' W 015°25'0 0.0
2018-Feb-10 08:30N 28°09' W 015°25'0 0.0
2018-Feb-10 08:00N 28°09' W 015°25'0 0.0
2018-Feb-10 07:30N 28°09' W 015°25'0 0.0
2018-Feb-10 07:00N 28°09' W 015°25'0 0.0
2018-Feb-10 06:30N 28°09' W 015°25'0 0.0
2018-Feb-10 06:00N 28°09' W 015°25'0 0.0
2018-Feb-10 05:28N 28°09' W 015°25'0 0.0
2018-Feb-10 05:00N 28°09' W 015°25'0 0.0
2018-Feb-10 04:30N 28°09' W 015°25'0 0.0
2018-Feb-10 03:58N 28°09' W 015°25'0 0.0
2018-Feb-10 03:28N 28°09' W 015°25'0 0.0
2018-Feb-10 02:59N 28°09' W 015°25'0 0.0
2018-Feb-10 02:30N 28°09' W 015°25'0 0.0
2018-Feb-10 02:00N 28°09' W 015°25'0 0.0
2018-Feb-10 01:30N 28°09' W 015°25'0 0.0
2018-Feb-10 01:00N 28°09' W 015°25'0 0.0
2018-Feb-10 00:30N 28°09' W 015°25'0 0.0
2018-Feb-10 00:00N 28°09' W 015°25'0 0.0
2018-Feb-09 23:30N 28°09' W 015°25'0 0.0
2018-Feb-09 22:59N 28°09' W 015°25'0 0.0
2018-Feb-09 22:46N 28°09' W 015°25'0 0.0
2018-Feb-09 17:00N 28°09' W 015°25'0 0.0
2018-Feb-09 04:00N 28°09' W 015°25'0 0.0
2018-Feb-09 02:30N 28°09' W 015°25'0 0.0
2018-Feb-09 02:00N 28°09' W 015°25'0 0.0
2018-Feb-09 01:30N 28°09' W 015°25'0 0.0
2018-Feb-09 01:00N 28°09' W 015°25'0 0.0
2018-Feb-09 00:30N 28°09' W 015°25'0 0.0
2018-Feb-08 22:30N 28°09' W 015°25'0 0.0
2018-Feb-08 13:30N 28°09' W 015°25'0 0.0
2018-Feb-08 13:00N 28°09' W 015°25'0 0.0
2018-Feb-08 12:30N 28°09' W 015°25'0 0.0
2018-Feb-08 12:00N 28°09' W 015°25'0 0.0
2018-Feb-08 11:30N 28°09' W 015°25'0 0.0
2018-Feb-08 11:00N 28°09' W 015°25'0 0.0
2018-Feb-08 10:00N 28°09' W 015°25'0 0.0
2018-Feb-08 09:30N 28°09' W 015°25'0 0.0
2018-Feb-08 08:30N 28°09' W 015°25'0 0.0
2018-Feb-08 08:00N 28°09' W 015°25'0 0.0
2018-Feb-08 07:00N 28°09' W 015°25'0 0.0
2018-Feb-08 01:30N 28°09' W 015°25'0 0.0
2018-Feb-08 01:00N 28°09' W 015°25'0 0.0
2018-Feb-08 00:30N 28°09' W 015°25'0 0.0
2018-Feb-08 00:00N 28°09' W 015°25'0 0.0
2018-Feb-07 23:30N 28°09' W 015°25'0 0.0
2018-Feb-07 23:00N 28°09' W 015°25'0 0.0
2018-Feb-07 22:30N 28°09' W 015°25'0 0.0
2018-Feb-07 22:00N 28°09' W 015°25'0 0.0
2018-Feb-07 21:29N 28°09' W 015°25'0 0.0
2018-Feb-07 09:30N 28°09' W 015°25'0 0.0
2018-Feb-07 09:00N 28°09' W 015°25'0 0.0
2018-Feb-07 08:30N 28°09' W 015°25'0 0.0
2018-Feb-07 08:00N 28°09' W 015°25'0 0.0
2018-Feb-07 07:30N 28°09' W 015°25'0 0.0
2018-Feb-07 07:00N 28°09' W 015°25'0 0.0
2018-Feb-07 06:30N 28°09' W 015°25'0 0.0
2018-Feb-07 06:00N 28°09' W 015°25'0 0.0
2018-Feb-07 05:30N 28°09' W 015°25'0 0.0
2018-Feb-07 05:00N 28°09' W 015°25'0 0.0
2018-Feb-07 04:30N 28°09' W 015°25'0 0.0
2018-Feb-07 04:00N 28°09' W 015°25'0 0.0
2018-Feb-07 03:30N 28°09' W 015°25'0 0.0
2018-Feb-07 02:59N 28°09' W 015°25'0 0.0
2018-Feb-07 02:30N 28°09' W 015°25'0 0.0
2018-Feb-07 02:00N 28°09' W 015°25'0 0.0
2018-Feb-07 01:30N 28°09' W 015°25'0 0.0
2018-Feb-07 01:00N 28°09' W 015°25'0 0.0
2018-Feb-07 00:30N 28°09' W 015°25'0 0.0
2018-Feb-07 00:00N 28°09' W 015°25'0 0.0
2018-Feb-06 23:30N 28°09' W 015°25'0 0.0
2018-Feb-06 22:57N 28°09' W 015°25'  
Track history (hours):
 
Tides and Currents Weather Stations Pressure Air Temp Water Temp Dewpoint Dewpoint Depression Visibility Wind Speed Wind Dir Waves Ship Positions

Akchar

Last reported at 2018-Feb-16 22:52 UTC. Time now 2018-Feb-19 00:04 UTC.
Position N 27°47' W 015°21'.

Length 27 m; draft 4.2 m.

Type: Fishing. MMSI: 654045700.

Date/timePositionNaut miles runAvg speedWind from/ knotsBaromVisibWave heightAir tempDewpointWater temp
2018-Feb-16 22:52N 27°47' W 015°21'3 7.2
2018-Feb-16 22:30N 27°50' W 015°20'3 6.7
2018-Feb-16 22:00N 27°53' W 015°19'3 6.7
2018-Feb-16 21:29N 27°57' W 015°19'3 6.8
2018-Feb-16 21:00N 27°60' W 015°20'3 6.4
2018-Feb-16 20:30N 28°03' W 015°21'3 6.4
2018-Feb-16 20:00N 28°06' W 015°23'3 6.2
2018-Feb-16 19:29N 28°08' W 015°25'0 0.8
2018-Feb-16 18:58N 28°09' W 015°25'0 0.0
2018-Feb-16 18:30N 28°09' W 015°25'0 0.0
2018-Feb-16 18:00N 28°09' W 015°25'0 0.0
2018-Feb-16 17:30N 28°09' W 015°25'0 0.0
2018-Feb-16 17:00N 28°09' W 015°25'0 0.0
2018-Feb-16 16:30N 28°09' W 015°25'0 0.0
2018-Feb-16 16:00N 28°09' W 015°25'0 0.0
2018-Feb-16 15:30N 28°09' W 015°25'0 0.0
2018-Feb-16 15:00N 28°09' W 015°25'0 0.0
2018-Feb-16 14:28N 28°09' W 015°25'0 0.0
2018-Feb-16 14:00N 28°09' W 015°25'0 0.0
2018-Feb-16 13:30N 28°09' W 015°25'0 0.0
2018-Feb-16 13:00N 28°09' W 015°25'0 0.0
2018-Feb-16 12:30N 28°09' W 015°25'0 0.0
2018-Feb-16 12:00N 28°09' W 015°25'0 0.0
2018-Feb-16 11:30N 28°09' W 015°25'0 0.0
2018-Feb-16 11:00N 28°09' W 015°25'0 0.0
2018-Feb-16 10:30N 28°09' W 015°25'0 0.0
2018-Feb-16 10:00N 28°09' W 015°25'0 0.0
2018-Feb-16 09:28N 28°09' W 015°25'0 0.0
2018-Feb-16 09:00N 28°09' W 015°25'0 0.0
2018-Feb-16 08:30N 28°09' W 015°25'0 0.0
2018-Feb-16 08:00N 28°09' W 015°25'0 0.0
2018-Feb-16 07:30N 28°09' W 015°25'0 0.0
2018-Feb-16 07:00N 28°09' W 015°25'0 0.0
2018-Feb-16 06:30N 28°09' W 015°25'0 0.0
2018-Feb-16 06:00N 28°09' W 015°25'0 0.0
2018-Feb-16 05:30N 28°09' W 015°25'0 0.0
2018-Feb-16 05:00N 28°09' W 015°25'0 0.0
2018-Feb-16 04:30N 28°09' W 015°25'0 0.0
2018-Feb-16 04:00N 28°09' W 015°25'0 0.0
2018-Feb-16 03:30N 28°09' W 015°25'0 0.0
2018-Feb-16 03:00N 28°09' W 015°25'0 0.0
2018-Feb-16 02:30N 28°09' W 015°25'0 0.0
2018-Feb-16 02:00N 28°09' W 015°25'0 0.0
2018-Feb-16 01:30N 28°09' W 015°25'0 0.0
2018-Feb-16 01:00N 28°09' W 015°25'0 0.0
2018-Feb-16 00:30N 28°09' W 015°25'0 0.0
2018-Feb-16 00:00N 28°09' W 015°25'0 0.0
2018-Feb-15 23:30N 28°09' W 015°25'0 0.0
2018-Feb-15 23:00N 28°09' W 015°25'0 0.0
2018-Feb-15 22:30N 28°09' W 015°25'0 0.0
2018-Feb-15 22:00N 28°09' W 015°25'0 0.0
2018-Feb-15 21:28N 28°09' W 015°25'0 0.0
2018-Feb-15 21:00N 28°09' W 015°25'0 0.0
2018-Feb-15 20:30N 28°09' W 015°25'0 0.0
2018-Feb-15 20:00N 28°09' W 015°25'0 0.0
2018-Feb-15 19:30N 28°09' W 015°25'0 0.0
2018-Feb-15 19:00N 28°09' W 015°25'0 0.0
2018-Feb-15 18:30N 28°09' W 015°25'0 0.0
2018-Feb-15 18:00N 28°09' W 015°25'0 0.0
2018-Feb-15 17:30N 28°09' W 015°25'0 0.0
2018-Feb-15 17:00N 28°09' W 015°25'1 2.2
2018-Feb-15 16:31N 28°08' W 015°25'1 2.9
2018-Feb-15 16:00N 28°09' W 015°25'0 0.2
2018-Feb-15 15:30N 28°09' W 015°25'0 0.0
2018-Feb-15 15:00N 28°09' W 015°25'0 0.2
2018-Feb-15 14:30N 28°09' W 015°25'0 0.0
2018-Feb-15 14:00N 28°09' W 015°25'0 0.0
2018-Feb-15 13:30N 28°09' W 015°25'0 0.0
2018-Feb-15 13:00N 28°09' W 015°25'0 0.0
2018-Feb-15 12:30N 28°09' W 015°25'0 0.0
2018-Feb-15 12:00N 28°09' W 015°25'0 0.0
2018-Feb-15 11:30N 28°09' W 015°25'0 0.0
2018-Feb-15 11:00N 28°09' W 015°25'0 0.0
2018-Feb-15 10:30N 28°09' W 015°25'0 0.0
2018-Feb-15 10:00N 28°09' W 015°25'0 0.0
2018-Feb-15 09:30N 28°09' W 015°25'0 0.0
2018-Feb-15 09:00N 28°09' W 015°25'0 0.0
2018-Feb-15 08:30N 28°09' W 015°25'0 0.0
2018-Feb-15 08:00N 28°09' W 015°25'0 0.0
2018-Feb-15 07:30N 28°09' W 015°25'0 0.0
2018-Feb-15 07:00N 28°09' W 015°25'0 0.0
2018-Feb-15 06:30N 28°09' W 015°25'0 0.0
2018-Feb-15 06:00N 28°09' W 015°25'0 0.0
2018-Feb-15 05:30N 28°09' W 015°25'0 0.0
2018-Feb-15 05:00N 28°09' W 015°25'0 0.0
2018-Feb-15 04:30N 28°09' W 015°25'0 0.0
2018-Feb-15 04:00N 28°09' W 015°25'0 0.0
2018-Feb-15 03:30N 28°09' W 015°25'0 0.0
2018-Feb-15 03:00N 28°09' W 015°25'0 0.0
2018-Feb-15 02:30N 28°09' W 015°25'0 0.0
2018-Feb-15 02:00N 28°09' W 015°25'0 0.0
2018-Feb-15 01:30N 28°09' W 015°25'0 0.0
2018-Feb-15 01:00N 28°09' W 015°25'0 0.0
2018-Feb-15 00:30N 28°09' W 015°25'0 0.0
2018-Feb-15 00:00N 28°09' W 015°25'0 0.0
2018-Feb-14 23:30N 28°09' W 015°25'0 0.0
2018-Feb-14 23:00N 28°09' W 015°25'0 0.0
2018-Feb-14 22:30N 28°09' W 015°25'0 0.0
2018-Feb-14 22:00N 28°09' W 015°25'0 0.0
2018-Feb-14 21:30N 28°09' W 015°25'0 0.0
2018-Feb-14 21:00N 28°09' W 015°25'0 0.0
2018-Feb-14 20:30N 28°09' W 015°25'0 0.0
2018-Feb-14 20:00N 28°09' W 015°25'0 0.0
2018-Feb-14 19:30N 28°09' W 015°25'0 0.0
2018-Feb-14 19:00N 28°09' W 015°25'0 0.0
2018-Feb-14 18:29N 28°09' W 015°25'0 0.0
2018-Feb-14 18:00N 28°09' W 015°25'0 0.0
2018-Feb-14 17:30N 28°09' W 015°25'0 0.0
2018-Feb-14 17:00N 28°09' W 015°25'0 0.0
2018-Feb-14 16:30N 28°09' W 015°25'0 0.0
2018-Feb-14 16:00N 28°09' W 015°25'0 0.0
2018-Feb-14 15:29N 28°09' W 015°25'0 0.0
2018-Feb-14 15:00N 28°09' W 015°25'0 0.0
2018-Feb-14 14:30N 28°09' W 015°25'0 0.0
2018-Feb-14 14:00N 28°09' W 015°25'0 0.0
2018-Feb-14 13:30N 28°09' W 015°25'0 0.0
2018-Feb-14 13:00N 28°09' W 015°25'0 0.0
2018-Feb-14 12:30N 28°09' W 015°25'0 0.0
2018-Feb-14 12:00N 28°09' W 015°25'0 0.0
2018-Feb-14 11:30N 28°09' W 015°25'0 0.0
2018-Feb-14 10:59N 28°09' W 015°25'0 0.0
2018-Feb-14 10:30N 28°09' W 015°25'0 0.0
2018-Feb-14 10:00N 28°09' W 015°25'0 0.0
2018-Feb-14 09:30N 28°09' W 015°25'0 0.0
2018-Feb-14 09:00N 28°09' W 015°25'0 0.0
2018-Feb-14 08:30N 28°09' W 015°25'0 0.0
2018-Feb-14 08:00N 28°09' W 015°25'0 0.0
2018-Feb-14 07:30N 28°09' W 015°25'0 0.0
2018-Feb-14 07:00N 28°09' W 015°25'0 0.0
2018-Feb-14 06:30N 28°09' W 015°25'0 0.0
2018-Feb-14 06:00N 28°09' W 015°25'0 0.0
2018-Feb-14 05:30N 28°09' W 015°25'0 0.0
2018-Feb-14 05:00N 28°09' W 015°25'0 0.0
2018-Feb-14 04:30N 28°09' W 015°25'0 0.0
2018-Feb-14 04:00N 28°09' W 015°25'0 0.0
2018-Feb-14 03:30N 28°09' W 015°25'0 0.0
2018-Feb-14 03:00N 28°09' W 015°25'0 0.0
2018-Feb-14 02:30N 28°09' W 015°25'0 0.0
2018-Feb-14 02:00N 28°09' W 015°25'0 0.0
2018-Feb-14 01:29N 28°09' W 015°25'0 0.0
2018-Feb-14 01:00N 28°09' W 015°25'0 0.0
2018-Feb-14 00:30N 28°09' W 015°25'0 0.0
2018-Feb-14 00:00N 28°09' W 015°25'0 0.0
2018-Feb-13 23:30N 28°09' W 015°25'0 0.0
2018-Feb-13 23:00N 28°09' W 015°25'0 0.0
2018-Feb-13 22:30N 28°09' W 015°25'0 0.0
2018-Feb-13 22:00N 28°09' W 015°25'0 0.0
2018-Feb-13 21:30N 28°09' W 015°25'0 0.0
2018-Feb-13 21:00N 28°09' W 015°25'0 0.0
2018-Feb-13 20:30N 28°09' W 015°25'0 0.0
2018-Feb-13 20:00N 28°09' W 015°25'0 0.0
2018-Feb-13 19:30N 28°09' W 015°25'0 0.0
2018-Feb-13 19:00N 28°09' W 015°25'0 0.0
2018-Feb-13 18:30N 28°09' W 015°25'0 0.0
2018-Feb-13 18:00N 28°09' W 015°25'0 0.0
2018-Feb-13 17:30N 28°09' W 015°25'0 0.0
2018-Feb-13 17:00N 28°09' W 015°25'0 0.0
2018-Feb-13 16:30N 28°09' W 015°25'0 0.0
2018-Feb-13 16:00N 28°09' W 015°25'0 0.0
2018-Feb-13 15:30N 28°09' W 015°25'0 0.0
2018-Feb-13 15:00N 28°09' W 015°25'0 0.0
2018-Feb-13 14:30N 28°09' W 015°25'0 0.0
2018-Feb-13 14:00N 28°09' W 015°25'0 0.0
2018-Feb-13 13:30N 28°09' W 015°25'0 0.0
2018-Feb-13 12:59N 28°09' W 015°25'0 0.0
2018-Feb-13 12:30N 28°09' W 015°25'0 0.0
2018-Feb-13 12:00N 28°09' W 015°25'0 0.0
2018-Feb-13 11:30N 28°09' W 015°25'0 0.0
2018-Feb-13 11:00N 28°09' W 015°25'0 0.0
2018-Feb-13 10:30N 28°09' W 015°25'0 0.0
2018-Feb-13 10:00N 28°09' W 015°25'0 0.0
2018-Feb-13 09:30N 28°09' W 015°25'0 0.0
2018-Feb-13 09:00N 28°09' W 015°25'0 0.0
2018-Feb-13 08:30N 28°09' W 015°25'0 0.0
2018-Feb-13 08:00N 28°09' W 015°25'0 0.0
2018-Feb-13 07:30N 28°09' W 015°25'0 0.0
2018-Feb-13 07:00N 28°09' W 015°25'0 0.0
2018-Feb-13 06:30N 28°09' W 015°25'0 0.0
2018-Feb-13 06:00N 28°09' W 015°25'0 0.0
2018-Feb-13 05:30N 28°09' W 015°25'0 0.0
2018-Feb-13 05:00N 28°09' W 015°25'0 0.0
2018-Feb-13 04:30N 28°09' W 015°25'0 0.0
2018-Feb-13 04:00N 28°09' W 015°25'0 0.0
2018-Feb-13 03:30N 28°09' W 015°25'0 0.0
2018-Feb-13 03:00N 28°09' W 015°25'0 0.0
2018-Feb-13 02:30N 28°09' W 015°25'0 0.0
2018-Feb-13 02:00N 28°09' W 015°25'0 0.0
2018-Feb-13 01:30N 28°09' W 015°25'0 0.0
2018-Feb-13 01:00N 28°09' W 015°25'0 0.0
2018-Feb-13 00:30N 28°09' W 015°25'0 0.0
2018-Feb-12 23:59N 28°09' W 015°25'0 0.0
2018-Feb-12 23:30N 28°09' W 015°25'0 0.0
2018-Feb-12 23:00N 28°09' W 015°25'0 0.0
2018-Feb-12 22:30N 28°09' W 015°25'0 0.0
2018-Feb-12 22:00N 28°09' W 015°25'0 0.0
2018-Feb-12 21:30N 28°09' W 015°25'0 0.0
2018-Feb-12 21:00N 28°09' W 015°25'0 0.0
2018-Feb-12 20:30N 28°09' W 015°25'0 0.0
2018-Feb-12 20:00N 28°09' W 015°25'0 0.0
2018-Feb-12 19:30N 28°09' W 015°25'0 0.0
2018-Feb-12 19:00N 28°09' W 015°25'0 0.0
2018-Feb-12 18:30N 28°09' W 015°25'0 0.0
2018-Feb-12 18:00N 28°09' W 015°25'0 0.0
2018-Feb-12 17:30N 28°09' W 015°25'0 0.0
2018-Feb-12 17:00N 28°09' W 015°25'0 0.0
2018-Feb-12 16:30N 28°09' W 015°25'0 0.0
2018-Feb-12 16:00N 28°09' W 015°25'0 0.0
2018-Feb-12 15:30N 28°09' W 015°25'0 0.0
2018-Feb-12 15:00N 28°09' W 015°25'0 0.0
2018-Feb-12 14:30N 28°09' W 015°25'0 0.0
2018-Feb-12 14:00N 28°09' W 015°25'0 0.0
2018-Feb-12 13:30N 28°09' W 015°25'0 0.0
2018-Feb-12 13:00N 28°09' W 015°25'0 0.0
2018-Feb-12 12:30N 28°09' W 015°25'0 0.1
2018-Feb-12 12:00N 28°09' W 015°25'0 0.1
2018-Feb-12 11:30N 28°09' W 015°25'0 0.0
2018-Feb-12 11:00N 28°09' W 015°25'0 0.0
2018-Feb-12 10:30N 28°09' W 015°25'0 0.0
2018-Feb-12 10:00N 28°09' W 015°25'0 0.0
2018-Feb-12 09:30N 28°09' W 015°25'0 0.0
2018-Feb-12 09:00N 28°09' W 015°25'0 0.5
2018-Feb-12 08:30N 28°09' W 015°25'0 0.4
2018-Feb-12 08:00N 28°09' W 015°25'1 1.4
2018-Feb-12 07:30N 28°09' W 015°25'0 0.0
2018-Feb-12 07:00N 28°09' W 015°25'0 0.0
2018-Feb-12 06:28N 28°09' W 015°25'0 0.0
2018-Feb-12 05:59N 28°09' W 015°25'0 0.0
2018-Feb-12 05:30N 28°09' W 015°25'0 0.0
2018-Feb-12 05:00N 28°09' W 015°25'0 0.0
2018-Feb-12 04:30N 28°09' W 015°25'0 0.0
2018-Feb-12 04:00N 28°09' W 015°25'0 0.0
2018-Feb-12 03:30N 28°09' W 015°25'0 0.0
2018-Feb-12 03:00N 28°09' W 015°25'0 0.0
2018-Feb-12 02:30N 28°09' W 015°25'0 0.0
2018-Feb-12 02:00N 28°09' W 015°25'0 0.0
2018-Feb-12 01:30N 28°09' W 015°25'0 0.0
2018-Feb-12 01:00N 28°09' W 015°25'0 0.0
2018-Feb-12 00:30N 28°09' W 015°25'0 0.0
2018-Feb-12 00:00N 28°09' W 015°25'0 0.0
2018-Feb-11 23:30N 28°09' W 015°25'0 0.0
2018-Feb-11 23:00N 28°09' W 015°25'0 0.0
2018-Feb-11 22:30N 28°09' W 015°25'0 0.0
2018-Feb-11 22:00N 28°09' W 015°25'0 0.0
2018-Feb-11 21:30N 28°09' W 015°25'0 0.0
2018-Feb-11 21:00N 28°09' W 015°25'0 0.0
2018-Feb-11 20:30N 28°09' W 015°25'0 0.0
2018-Feb-11 20:00N 28°09' W 015°25'0 0.0
2018-Feb-11 19:30N 28°09' W 015°25'0 0.0
2018-Feb-11 19:00N 28°09' W 015°25'0 0.0
2018-Feb-11 18:30N 28°09' W 015°25'0 0.0
2018-Feb-11 18:00N 28°09' W 015°25'0 0.0
2018-Feb-11 17:29N 28°09' W 015°25'0 0.0
2018-Feb-11 17:01N 28°09' W 015°25'0 0.0
2018-Feb-11 16:30N 28°09' W 015°25'0 0.0
2018-Feb-11 16:00N 28°09' W 015°25'0 0.0
2018-Feb-11 15:30N 28°09' W 015°25'0 0.0
2018-Feb-11 15:00N 28°09' W 015°25'0 0.0
2018-Feb-11 14:30N 28°09' W 015°25'0 0.0
2018-Feb-11 14:00N 28°09' W 015°25'0 0.0
2018-Feb-11 13:30N 28°09' W 015°25'0 0.0
2018-Feb-11 13:00N 28°09' W 015°25'0 0.0
2018-Feb-11 12:30N 28°09' W 015°25'0 0.0
2018-Feb-11 12:00N 28°09' W 015°25'0 0.0
2018-Feb-11 11:30N 28°09' W 015°25'0 0.0
2018-Feb-11 11:00N 28°09' W 015°25'0 0.0
2018-Feb-11 10:30N 28°09' W 015°25'0 0.0
2018-Feb-11 10:00N 28°09' W 015°25'0 0.0
2018-Feb-11 09:30N 28°09' W 015°25'0 0.0
2018-Feb-11 09:00N 28°09' W 015°25'0 0.0
2018-Feb-11 08:30N 28°09' W 015°25'0 0.0
2018-Feb-11 08:00N 28°09' W 015°25'0 0.0
2018-Feb-11 07:30N 28°09' W 015°25'0 0.0
2018-Feb-11 07:00N 28°09' W 015°25'0 0.0
2018-Feb-11 06:30N 28°09' W 015°25'0 0.0
2018-Feb-11 06:00N 28°09' W 015°25'0 0.0
2018-Feb-11 05:30N 28°09' W 015°25'0 0.0
2018-Feb-11 05:00N 28°09' W 015°25'0 0.0
2018-Feb-11 04:30N 28°09' W 015°25'0 0.0
2018-Feb-11 04:00N 28°09' W 015°25'0 0.0
2018-Feb-11 03:30N 28°09' W 015°25'0 0.0
2018-Feb-11 03:00N 28°09' W 015°25'0 0.0
2018-Feb-11 02:30N 28°09' W 015°25'0 0.0
2018-Feb-11 02:00N 28°09' W 015°25'0 0.0
2018-Feb-11 01:30N 28°09' W 015°25'0 0.0
2018-Feb-11 01:00N 28°09' W 015°25'0 0.0
2018-Feb-11 00:30N 28°09' W 015°25'0 0.0
2018-Feb-10 23:57N 28°09' W 015°25'0 0.0
2018-Feb-10 23:30N 28°09' W 015°25'0 0.0
2018-Feb-10 22:59N 28°09' W 015°25'0 0.0
2018-Feb-10 22:30N 28°09' W 015°25'0 0.0
2018-Feb-10 22:00N 28°09' W 015°25'0 0.0
2018-Feb-10 21:30N 28°09' W 015°25'0 0.0
2018-Feb-10 21:00N 28°09' W 015°25'0 0.0
2018-Feb-10 20:30N 28°09' W 015°25'0 0.0
2018-Feb-10 20:00N 28°09' W 015°25'0 0.0
2018-Feb-10 19:30N 28°09' W 015°25'0 0.0
2018-Feb-10 19:00N 28°09' W 015°25'0 0.0
2018-Feb-10 18:30N 28°09' W 015°25'0 0.0
2018-Feb-10 17:57N 28°09' W 015°25'0 0.0
2018-Feb-10 17:30N 28°09' W 015°25'0 0.0
2018-Feb-10 17:00N 28°09' W 015°25'0 0.0
2018-Feb-10 16:30N 28°09' W 015°25'0 0.0
2018-Feb-10 16:00N 28°09' W 015°25'0 0.0
2018-Feb-10 15:30N 28°09' W 015°25'0 0.0
2018-Feb-10 15:00N 28°09' W 015°25'0 0.0
2018-Feb-10 14:30N 28°09' W 015°25'0 0.0
2018-Feb-10 14:00N 28°09' W 015°25'0 0.0
2018-Feb-10 13:30N 28°09' W 015°25'0 0.0
2018-Feb-10 13:00N 28°09' W 015°25'0 0.0
2018-Feb-10 12:30N 28°09' W 015°25'0 0.0
2018-Feb-10 12:00N 28°09' W 015°25'0 0.0
2018-Feb-10 11:30N 28°09' W 015°25'0 0.0
2018-Feb-10 11:00N 28°09' W 015°25'0 0.0
2018-Feb-10 10:30N 28°09' W 015°25'0 0.0
2018-Feb-10 10:00N 28°09' W 015°25'0 0.0
2018-Feb-10 09:30N 28°09' W 015°25'0 0.0
2018-Feb-10 08:59N 28°09' W 015°25'0 0.0
2018-Feb-10 08:30N 28°09' W 015°25'0 0.0
2018-Feb-10 08:00N 28°09' W 015°25'0 0.0
2018-Feb-10 07:30N 28°09' W 015°25'0 0.0
2018-Feb-10 07:00N 28°09' W 015°25'0 0.0
2018-Feb-10 06:30N 28°09' W 015°25'0 0.0
2018-Feb-10 06:00N 28°09' W 015°25'0 0.0
2018-Feb-10 05:28N 28°09' W 015°25'0 0.0
2018-Feb-10 05:00N 28°09' W 015°25'0 0.0
2018-Feb-10 04:30N 28°09' W 015°25'0 0.0
2018-Feb-10 03:58N 28°09' W 015°25'0 0.0
2018-Feb-10 03:28N 28°09' W 015°25'0 0.0
2018-Feb-10 02:59N 28°09' W 015°25'0 0.0
2018-Feb-10 02:30N 28°09' W 015°25'0 0.0
2018-Feb-10 02:00N 28°09' W 015°25'0 0.0
2018-Feb-10 01:30N 28°09' W 015°25'0 0.0
2018-Feb-10 01:00N 28°09' W 015°25'0 0.0
2018-Feb-10 00:30N 28°09' W 015°25'0 0.0
2018-Feb-10 00:00N 28°09' W 015°25'0 0.0
2018-Feb-09 23:30N 28°09' W 015°25'0 0.0
2018-Feb-09 22:59N 28°09' W 015°25'0 0.0
2018-Feb-09 22:46N 28°09' W 015°25'0 0.0
2018-Feb-09 17:00N 28°09' W 015°25'0 0.0
2018-Feb-09 04:00N 28°09' W 015°25'0 0.0
2018-Feb-09 02:30N 28°09' W 015°25'0 0.0
2018-Feb-09 02:00N 28°09' W 015°25'0 0.0
2018-Feb-09 01:30N 28°09' W 015°25'0 0.0
2018-Feb-09 01:00N 28°09' W 015°25'0 0.0
2018-Feb-09 00:30N 28°09' W 015°25'0 0.0
2018-Feb-08 22:30N 28°09' W 015°25'0 0.0
2018-Feb-08 13:30N 28°09' W 015°25'0 0.0
2018-Feb-08 13:00N 28°09' W 015°25'0 0.0
2018-Feb-08 12:30N 28°09' W 015°25'0 0.0
2018-Feb-08 12:00N 28°09' W 015°25'0 0.0
2018-Feb-08 11:30N 28°09' W 015°25'0 0.0
2018-Feb-08 11:00N 28°09' W 015°25'0 0.0
2018-Feb-08 10:00N 28°09' W 015°25'0 0.0
2018-Feb-08 09:30N 28°09' W 015°25'0 0.0
2018-Feb-08 08:30N 28°09' W 015°25'0 0.0
2018-Feb-08 08:00N 28°09' W 015°25'0 0.0
2018-Feb-08 07:00N 28°09' W 015°25'0 0.0
2018-Feb-08 01:30N 28°09' W 015°25'0 0.0
2018-Feb-08 01:00N 28°09' W 015°25'0 0.0
2018-Feb-08 00:30N 28°09' W 015°25'0 0.0
2018-Feb-08 00:00N 28°09' W 015°25'0 0.0
2018-Feb-07 23:30N 28°09' W 015°25'0 0.0
2018-Feb-07 23:00N 28°09' W 015°25'0 0.0
2018-Feb-07 22:30N 28°09' W 015°25'0 0.0
2018-Feb-07 22:00N 28°09' W 015°25'0 0.0
2018-Feb-07 21:29N 28°09' W 015°25'0 0.0
2018-Feb-07 09:30N 28°09' W 015°25'0 0.0
2018-Feb-07 09:00N 28°09' W 015°25'0 0.0
2018-Feb-07 08:30N 28°09' W 015°25'0 0.0
2018-Feb-07 08:00N 28°09' W 015°25'0 0.0
2018-Feb-07 07:30N 28°09' W 015°25'0 0.0
2018-Feb-07 07:00N 28°09' W 015°25'0 0.0
2018-Feb-07 06:30N 28°09' W 015°25'0 0.0
2018-Feb-07 06:00N 28°09' W 015°25'0 0.0
2018-Feb-07 05:30N 28°09' W 015°25'0 0.0
2018-Feb-07 05:00N 28°09' W 015°25'0 0.0
2018-Feb-07 04:30N 28°09' W 015°25'0 0.0
2018-Feb-07 04:00N 28°09' W 015°25'0 0.0
2018-Feb-07 03:30N 28°09' W 015°25'0 0.0
2018-Feb-07 02:59N 28°09' W 015°25'0 0.0
2018-Feb-07 02:30N 28°09' W 015°25'0 0.0
2018-Feb-07 02:00N 28°09' W 015°25'0 0.0
2018-Feb-07 01:30N 28°09' W 015°25'0 0.0
2018-Feb-07 01:00N 28°09' W 015°25'0 0.0
2018-Feb-07 00:30N 28°09' W 015°25'0 0.0
2018-Feb-07 00:00N 28°09' W 015°25'0 0.0
2018-Feb-06 23:30N 28°09' W 015°25'0 0.0
2018-Feb-06 22:57N 28°09' W 015°25'  

Dump ship's entire track history